Time;durP1;ratioP1;P1;durP2;ratioP2;P2;SDS_P1;SDS_P2;PMS_P1;PMS_P2;Temp;Humidity;BMP_temperature;BMP_pressure;BME280_temperature;BME280_humidity;BME280_pressure;Samples;Min_cycle;Max_cycle;Signal;HPM_P1;HPM_P2
2023/06/27 00:00:47;;;;;;;10.40;2.95;;;22.00;99.90;;;;;;4860143;29;20079;-82
2023/06/27 00:03:13;;;;;;;14.70;3.70;;;22.00;99.90;;;;;;4861047;29;20052;-82
2023/06/27 00:05:39;;;;;;;7.57;2.67;;;21.90;99.90;;;;;;4860914;29;20029;-82
2023/06/27 00:08:06;;;;;;;13.57;4.10;;;21.90;99.90;;;;;;4859712;29;20086;-82
2023/06/27 00:10:33;;;;;;;17.08;3.60;;;21.80;99.90;;;;;;4860803;29;20049;-82
2023/06/27 00:12:58;;;;;;;8.77;2.72;;;21.80;99.90;;;;;;4860380;29;20040;-82
2023/06/27 00:15:26;;;;;;;15.35;3.17;;;21.80;99.90;;;;;;4859850;29;20029;-82
2023/06/27 00:17:53;;;;;;;14.93;3.17;;;21.80;99.90;;;;;;4860485;29;20091;-82
2023/06/27 00:20:19;;;;;;;12.18;3.15;;;21.70;99.90;;;;;;4860538;29;20386;-82
2023/06/27 00:22:46;;;;;;;14.18;3.40;;;21.70;99.90;;;;;;4859757;29;20128;-82
2023/06/27 00:25:11;;;;;;;15.77;4.25;;;21.70;99.90;;;;;;4860140;29;20076;-82
2023/06/27 00:27:37;;;;;;;13.82;3.20;;;21.70;99.90;;;;;;4860349;29;20382;-82
2023/06/27 00:30:03;;;;;;;11.73;3.05;;;21.60;99.90;;;;;;4859356;29;20394;-82
2023/06/27 00:32:29;;;;;;;15.15;4.10;;;21.60;99.90;;;;;;4860323;29;20033;-82
2023/06/27 00:34:54;;;;;;;15.77;3.60;;;21.60;99.90;;;;;;4859464;29;20032;-82
2023/06/27 00:37:20;;;;;;;13.68;3.95;;;21.60;99.90;;;;;;4860402;29;20029;-82
2023/06/27 00:39:51;;;;;;;27.92;4.90;;;21.50;99.90;;;;;;4860044;29;20162;-82
2023/06/27 00:42:17;;;;;;;9.65;2.85;;;21.40;99.90;;;;;;4859410;29;20521;-82
2023/06/27 00:44:42;;;;;;;13.65;3.45;;;21.50;99.90;;;;;;4860446;29;20026;-82
2023/06/27 00:47:08;;;;;;;13.30;3.47;;;21.50;99.90;;;;;;4859850;29;20553;-82
2023/06/27 00:49:34;;;;;;;16.42;3.88;;;22.00;99.90;;;;;;4859528;29;20039;-82
2023/06/27 00:52:01;;;;;;;11.73;3.55;;;21.30;99.90;;;;;;4859112;29;20030;-82
2023/06/27 00:54:27;;;;;;;14.95;3.88;;;21.40;99.90;;;;;;4860087;29;20037;-82
2023/06/27 00:57:01;;;;;;;7.25;2.75;;;21.40;99.90;;;;;;4859344;29;20033;-82
2023/06/27 00:59:27;;;;;;;13.57;3.80;;;21.40;99.90;;;;;;4860288;29;20118;-82
2023/06/27 01:01:53;;;;;;;17.08;3.70;;;22.30;99.90;;;;;;4859640;29;20128;-82
2023/06/27 01:04:19;;;;;;;12.95;3.35;;;21.40;99.90;;;;;;4859343;29;20034;-82
2023/06/27 01:06:59;;;;;;;14.63;3.85;;;21.40;99.90;;;;;;4860071;29;20034;-82
2023/06/27 01:09:47;;;;;;;11.93;3.25;;;21.40;99.90;;;;;;4860255;29;20033;-82
2023/06/27 01:12:17;;;;;;;18.08;3.90;;;21.40;99.90;;;;;;4859583;29;20030;-82
2023/06/27 01:14:45;;;;;;;16.27;4.78;;;21.40;99.90;;;;;;4860090;29;20030;-82
2023/06/27 01:17:12;;;;;;;11.07;4.57;;;21.30;99.90;;;;;;4859307;29;20021;-82
2023/06/27 01:19:38;;;;;;;13.63;4.13;;;21.40;99.90;;;;;;4860097;29;20086;-82
2023/06/27 01:22:08;;;;;;;11.50;4.60;;;21.30;99.90;;;;;;4859470;29;20065;-82
2023/06/27 01:24:36;;;;;;;;;;;21.30;99.90;;;;;;4859553;29;20057;-82
2023/06/27 01:27:02;;;;;;;11.52;3.97;;;21.30;99.90;;;;;;4859705;29;19908;-82
2023/06/27 01:29:29;;;;;;;11.70;4.03;;;21.30;99.90;;;;;;4859565;29;20029;-82
2023/06/27 01:32:07;;;;;;;14.18;3.60;;;21.30;99.90;;;;;;4859072;29;20037;-82
2023/06/27 01:34:36;;;;;;;13.07;3.80;;;21.30;99.90;;;;;;4859901;29;20038;-82
2023/06/27 01:37:17;;;;;;;17.10;3.38;;;21.30;99.90;;;;;;4859712;29;20030;-82
2023/06/27 01:39:49;;;;;;;15.07;3.70;;;21.30;99.90;;;;;;4859271;29;20483;-82
2023/06/27 01:42:20;;;;;;;11.15;2.95;;;21.30;99.90;;;;;;4859656;29;20113;-82
2023/06/27 01:44:47;;;;;;;10.23;3.65;;;21.30;99.90;;;;;;4859324;29;20049;-82
2023/06/27 01:47:14;;;;;;;8.65;3.92;;;21.30;99.90;;;;;;4859196;29;20041;-81
2023/06/27 01:49:39;;;;;;;12.13;3.70;;;21.30;99.90;;;;;;4859744;29;20108;-82
2023/06/27 01:52:06;;;;;;;12.63;4.00;;;21.20;99.90;;;;;;4858632;29;20124;-82
2023/06/27 01:54:32;;;;;;;9.73;3.63;;;21.20;99.90;;;;;;4859408;29;20040;-82
2023/06/27 01:56:57;;;;;;;17.83;4.18;;;21.20;99.90;;;;;;4859187;29;20030;-82
2023/06/27 01:59:23;;;;;;;9.25;3.50;;;21.20;99.90;;;;;;4858886;29;20028;-82
2023/06/27 02:01:49;;;;;;;10.88;3.42;;;21.20;99.90;;;;;;4859452;29;20045;-81
2023/06/27 02:04:14;;;;;;;13.32;3.67;;;21.20;99.90;;;;;;4862443;29;20041;-82
2023/06/27 02:06:40;;;;;;;11.13;3.17;;;21.30;99.90;;;;;;4862254;29;20032;-82
2023/06/27 02:09:07;;;;;;;9.05;3.92;;;21.20;99.90;;;;;;4862528;29;20026;-82
2023/06/27 02:11:32;;;;;;;14.00;3.55;;;21.20;99.90;;;;;;4862553;29;20053;-82
2023/06/27 02:13:58;;;;;;;13.73;4.25;;;21.00;99.90;;;;;;4861963;29;20060;-82
2023/06/27 02:16:25;;;;;;;10.65;3.88;;;21.10;99.90;;;;;;4862760;29;20041;-82
2023/06/27 02:18:50;;;;;;;10.10;3.60;;;21.10;99.90;;;;;;4862447;29;20116;-82
2023/06/27 02:21:16;;;;;;;7.70;3.25;;;21.10;99.90;;;;;;4861918;29;20128;-82
2023/06/27 02:23:42;;;;;;;9.45;3.13;;;21.10;99.90;;;;;;4862258;29;20494;-82
2023/06/27 02:26:08;;;;;;;14.15;3.75;;;21.30;99.90;;;;;;4862260;29;20040;-82
2023/06/27 02:28:33;;;;;;;10.00;3.95;;;21.10;99.90;;;;;;4862133;29;20441;-82
2023/06/27 02:30:59;;;;;;;11.82;3.58;;;21.10;99.90;;;;;;4862391;29;20121;-82
2023/06/27 02:33:24;;;;;;;11.98;3.88;;;21.10;99.90;;;;;;4862688;29;20078;-82
2023/06/27 02:35:50;;;;;;;8.30;3.50;;;21.20;99.90;;;;;;4861681;29;20475;-82
2023/06/27 02:38:16;;;;;;;9.85;3.38;;;21.20;99.90;;;;;;4862255;29;20471;-82
2023/06/27 02:40:41;;;;;;;10.10;2.85;;;21.10;99.90;;;;;;4862326;29;20033;-82
2023/06/27 02:43:07;;;;;;;8.10;2.72;;;21.00;99.90;;;;;;4861449;29;20558;-82
2023/06/27 02:45:32;;;;;;;9.45;2.95;;;21.00;99.90;;;;;;4862511;29;20423;-82
2023/06/27 02:47:58;;;;;;;15.93;3.28;;;21.00;99.90;;;;;;4862141;29;20037;-82
2023/06/27 02:50:23;;;;;;;8.10;3.33;;;21.00;99.90;;;;;;4861334;29;20131;-82
2023/06/27 02:52:49;;;;;;;12.63;3.42;;;21.00;99.90;;;;;;4861674;29;20024;-82
2023/06/27 02:55:15;;;;;;;16.58;3.47;;;21.10;99.90;;;;;;4861878;29;20041;-82
2023/06/27 02:57:40;;;;;;;11.48;3.67;;;21.00;99.90;;;;;;4861212;29;20026;-82
2023/06/27 03:00:07;;;;;;;13.88;3.05;;;21.00;99.90;;;;;;4861899;29;20032;-82
2023/06/27 03:02:33;;;;;;;13.68;3.58;;;21.00;99.90;;;;;;4860917;29;20077;-82
2023/06/27 03:04:58;;;;;;;12.43;3.38;;;21.10;99.90;;;;;;4861633;29;20045;-82
2023/06/27 03:07:24;;;;;;;9.30;3.17;;;21.00;99.90;;;;;;4861630;29;20044;-82
2023/06/27 03:09:49;;;;;;;11.13;3.40;;;21.00;99.90;;;;;;4860756;29;20033;-82
2023/06/27 03:12:15;;;;;;;11.68;3.00;;;21.40;99.90;;;;;;4862047;29;20108;-82
2023/06/27 03:14:40;;;;;;;9.45;3.75;;;21.00;99.90;;;;;;4861134;29;20427;-82
2023/06/27 03:17:06;;;;;;;16.58;4.35;;;20.90;99.90;;;;;;4861052;29;20036;-82
2023/06/27 03:19:31;;;;;;;19.00;3.85;;;20.90;99.90;;;;;;4861892;29;20482;-82
2023/06/27 03:21:57;;;;;;;11.05;4.15;;;20.90;99.90;;;;;;4861664;29;20052;-82
2023/06/27 03:24:22;;;;;;;11.63;4.03;;;20.90;99.90;;;;;;4860876;29;20461;-82
2023/06/27 03:26:48;;;;;;;12.23;4.68;;;20.90;99.90;;;;;;4861665;29;20033;-82
2023/06/27 03:29:14;;;;;;;19.05;4.03;;;20.90;99.90;;;;;;4861631;29;20093;-83
2023/06/27 03:31:39;;;;;;;17.42;4.18;;;20.80;99.90;;;;;;4860927;29;20037;-83
2023/06/27 03:34:05;;;;;;;12.18;4.03;;;20.90;99.90;;;;;;4861432;29;20034;-83
2023/06/27 03:36:33;;;;;;;12.02;3.35;;;20.90;99.90;;;;;;4861655;29;20105;-83
2023/06/27 03:38:59;;;;;;;11.77;3.38;;;20.80;99.90;;;;;;4860529;29;20089;-83
2023/06/27 03:41:26;;;;;;;12.27;3.22;;;20.80;99.90;;;;;;4861389;29;20042;-82
2023/06/27 03:43:51;;;;;;;10.13;3.55;;;20.80;99.90;;;;;;4860818;29;20030;-82
2023/06/27 03:46:17;;;;;;;14.35;3.20;;;21.10;99.90;;;;;;4860395;29;20124;-83
2023/06/27 03:48:42;;;;;;;7.72;2.80;;;20.80;99.90;;;;;;4861159;29;20026;-83
2023/06/27 03:51:08;;;;;;;9.95;3.40;;;20.80;99.90;;;;;;4860838;29;20037;-83
2023/06/27 03:53:33;;;;;;;8.80;3.05;;;20.80;99.90;;;;;;4860332;29;20514;-83
2023/06/27 03:56:01;;;;;;;14.27;3.75;;;20.90;99.90;;;;;;4861151;29;20029;-83
2023/06/27 03:58:27;;;;;;;7.90;3.17;;;20.80;99.90;;;;;;4861162;29;20049;-83
2023/06/27 04:00:55;;;;;;;13.57;3.70;;;21.30;99.90;;;;;;4860016;29;20142;-83
2023/06/27 04:03:21;;;;;;;6.13;2.90;;;20.90;99.90;;;;;;4860980;29;20033;-83
2023/06/27 04:05:47;;;;;;;12.23;4.10;;;20.80;99.90;;;;;;4860037;29;20364;-83
2023/06/27 04:08:13;;;;;;;7.32;3.22;;;20.90;99.90;;;;;;4860832;29;20398;-83
2023/06/27 04:10:42;;;;;;;9.35;3.45;;;20.80;99.90;;;;;;4860509;29;20185;-83
2023/06/27 04:13:08;;;;;;;9.90;3.47;;;20.80;99.90;;;;;;4859812;29;20504;-83
2023/06/27 04:15:39;;;;;;;12.02;3.65;;;20.70;99.90;;;;;;4860871;29;20249;-83
2023/06/27 04:18:08;;;;;;;6.22;3.33;;;20.70;99.90;;;;;;4860269;29;20041;-83
2023/06/27 04:20:33;;;;;;;12.27;4.30;;;20.70;99.90;;;;;;4859831;29;20059;-82
2023/06/27 04:22:59;;;;;;;10.98;3.00;;;20.70;99.90;;;;;;4860347;29;20061;-82
2023/06/27 04:25:31;;;;;;;9.93;4.07;;;20.60;99.90;;;;;;4860620;29;20033;-83
2023/06/27 04:27:57;;;;;;;9.77;3.30;;;20.70;99.90;;;;;;4859667;29;20367;-82
2023/06/27 04:30:22;;;;;;;13.57;4.70;;;20.90;99.90;;;;;;4860531;29;20028;-83
2023/06/27 04:32:51;;;;;;;6.85;3.40;;;20.70;99.90;;;;;;4860232;29;20025;-83
2023/06/27 04:35:18;;;;;;;10.57;3.92;;;20.70;99.90;;;;;;4859531;29;20033;-83
2023/06/27 04:37:47;;;;;;;8.35;3.80;;;20.60;99.90;;;;;;4860241;29;20030;-83
2023/06/27 04:40:13;;;;;;;11.70;4.32;;;20.60;99.90;;;;;;4854203;29;20030;-82
2023/06/27 04:42:38;;;;;;;8.70;3.83;;;20.60;99.90;;;;;;4859687;29;20041;-83
2023/06/27 04:45:08;;;;;;;8.70;3.30;;;20.60;99.90;;;;;;4860027;29;20427;-82
2023/06/27 04:47:37;;;;;;;14.77;4.38;;;20.60;99.90;;;;;;4860156;29;20029;-83
2023/06/27 04:50:04;;;;;;;10.90;4.15;;;20.60;99.90;;;;;;4859642;29;20030;-82
2023/06/27 04:52:30;;;;;;;6.13;3.05;;;20.60;99.90;;;;;;4860118;29;20030;-82
2023/06/27 04:54:55;;;;;;;10.43;4.20;;;20.60;99.90;;;;;;4859815;29;20025;-82
2023/06/27 04:57:21;;;;;;;12.82;4.70;;;20.50;99.90;;;;;;4859772;29;20402;-82
2023/06/27 04:59:46;;;;;;;9.98;3.90;;;21.00;99.90;;;;;;4859903;29;20026;-83
2023/06/27 05:02:12;;;;;;;11.68;4.63;;;20.50;99.90;;;;;;4859049;29;20052;-83
2023/06/27 05:04:38;;;;;;;5.60;3.28;;;20.50;99.90;;;;;;4860087;29;20026;-82
2023/06/27 05:07:14;;;;;;;10.57;4.18;;;20.60;99.90;;;;;;4854278;29;20048;-83
2023/06/27 05:09:39;;;;;;;10.35;3.78;;;20.50;99.90;;;;;;4859802;29;20078;-83
2023/06/27 05:12:05;;;;;;;5.72;3.45;;;20.50;99.90;;;;;;4859642;29;20423;-82
2023/06/27 05:14:31;;;;;;;8.13;3.53;;;20.60;99.90;;;;;;4859952;29;20028;-82
2023/06/27 05:16:56;;;;;;;8.02;3.72;;;20.60;99.90;;;;;;4858837;29;20117;-82
2023/06/27 05:19:22;;;;;;;12.38;3.55;;;20.60;99.90;;;;;;4859865;29;20029;-82
2023/06/27 05:21:48;;;;;;;9.18;3.47;;;20.60;99.90;;;;;;4859527;29;20042;-83
2023/06/27 05:24:13;;;;;;;12.80;3.42;;;20.60;99.90;;;;;;4859396;29;20510;-83
2023/06/27 05:26:39;;;;;;;5.75;2.75;;;20.60;99.90;;;;;;4859753;29;20033;-83
2023/06/27 05:29:04;;;;;;;8.95;3.58;;;20.60;99.90;;;;;;4859881;29;20038;-83
2023/06/27 05:31:30;;;;;;;11.68;3.53;;;20.70;99.90;;;;;;4859114;29;20385;-83
2023/06/27 05:33:55;;;;;;;9.48;3.35;;;20.60;99.90;;;;;;4859640;29;20078;-83
2023/06/27 05:36:21;;;;;;;12.98;3.63;;;20.70;99.90;;;;;;4859993;29;20021;-83
2023/06/27 05:38:48;;;;;;;14.35;3.80;;;20.60;99.90;;;;;;4861164;29;20517;-82
2023/06/27 05:41:17;;;;;;;6.10;3.22;;;21.10;99.90;;;;;;4863391;29;20045;-84
2023/06/27 05:43:44;;;;;;;5.95;2.80;;;20.60;99.90;;;;;;4863611;29;20427;-83
2023/06/27 05:46:10;;;;;;;9.55;2.90;;;20.60;99.90;;;;;;4862670;29;20037;-84
2023/06/27 05:48:35;;;;;;;13.43;4.05;;;20.90;99.90;;;;;;4863415;29;20036;-83
2023/06/27 05:51:01;;;;;;;12.50;3.55;;;20.60;99.90;;;;;;4863047;29;20078;-84
2023/06/27 05:53:26;;;;;;;7.75;3.05;;;20.60;99.90;;;;;;4862405;29;20075;-84
2023/06/27 05:55:52;;;;;;;8.02;2.95;;;20.60;99.90;;;;;;4862487;29;20037;-84
2023/06/27 05:58:17;;;;;;;9.25;3.40;;;20.60;99.90;;;;;;4862653;29;20578;-84
2023/06/27 06:00:43;;;;;;;7.80;2.80;;;20.60;99.90;;;;;;4862550;29;20033;-83
2023/06/27 06:03:08;;;;;;;6.43;2.90;;;20.60;99.90;;;;;;4862689;29;20364;-83
2023/06/27 06:05:34;;;;;;;5.40;2.92;;;20.60;99.90;;;;;;4862641;29;20057;-83
2023/06/27 06:07:59;;;;;;;9.50;2.42;;;20.80;99.90;;;;;;4862358;29;20036;-83
2023/06/27 06:10:25;;;;;;;9.13;2.45;;;20.60;99.90;;;;;;4862746;29;20041;-84
2023/06/27 06:12:51;;;;;;;6.50;2.40;;;20.60;99.90;;;;;;4861786;29;20025;-84
2023/06/27 06:15:17;;;;;;;5.78;2.28;;;20.50;99.90;;;;;;4862762;29;20097;-84
2023/06/27 06:17:42;;;;;;;7.85;2.90;;;20.50;99.90;;;;;;4862819;29;20074;-84
2023/06/27 06:20:11;;;;;;;6.50;2.22;;;20.50;99.90;;;;;;4862175;29;20022;-84
2023/06/27 06:22:37;;;;;;;5.53;2.30;;;20.60;99.90;;;;;;4862682;29;20034;-84
2023/06/27 06:25:04;;;;;;;6.90;2.20;;;20.50;99.90;;;;;;4862106;29;20129;-83
2023/06/27 06:27:29;;;;;;;6.30;2.10;;;20.60;99.90;;;;;;4861724;29;20094;-84
2023/06/27 06:29:55;;;;;;;9.77;2.35;;;20.60;99.90;;;;;;4862107;29;20025;-83
2023/06/27 06:32:20;;;;;;;7.65;2.40;;;20.60;99.90;;;;;;4862118;29;20098;-83
2023/06/27 06:34:46;;;;;;;5.72;2.28;;;20.60;99.90;;;;;;4861241;29;20092;-83
2023/06/27 06:37:12;;;;;;;10.45;2.10;;;21.40;99.90;;;;;;4862499;29;20040;-84
2023/06/27 06:39:38;;;;;;;5.60;1.95;;;20.60;99.90;;;;;;4862155;29;20033;-84
2023/06/27 06:42:03;;;;;;;10.38;2.47;;;20.60;99.90;;;;;;4861320;29;20198;-83
2023/06/27 06:44:29;;;;;;;7.50;2.42;;;20.70;99.90;;;;;;4862139;29;20021;-84
2023/06/27 06:46:54;;;;;;;7.75;2.10;;;20.70;99.90;;;;;;4862082;29;20110;-83
2023/06/27 06:49:20;;;;;;;9.70;2.90;;;21.20;99.90;;;;;;4860008;29;20025;-83
2023/06/27 06:51:46;;;;;;;3.63;1.95;;;20.80;99.90;;;;;;4861977;29;20033;-83
2023/06/27 06:54:11;;;;;;;7.07;1.70;;;20.60;99.90;;;;;;4862119;29;20029;-83
2023/06/27 06:56:37;;;;;;;6.13;1.90;;;21.30;99.90;;;;;;4860797;29;20029;-83
2023/06/27 06:59:03;;;;;;;3.95;1.63;;;20.80;99.90;;;;;;4861722;29;20029;-83
2023/06/27 07:01:28;;;;;;;4.55;2.05;;;20.80;99.90;;;;;;4862155;29;20097;-84
2023/06/27 07:03:54;;;;;;;7.38;2.58;;;20.80;99.90;;;;;;4861105;29;20562;-83
2023/06/27 07:06:20;;;;;;;6.22;2.20;;;21.50;99.90;;;;;;4861630;29;20025;-83
2023/06/27 07:08:45;;;;;;;5.38;1.92;;;20.70;99.90;;;;;;4860620;29;20072;-83
2023/06/27 07:11:11;;;;;;;7.35;2.83;;;20.80;99.90;;;;;;4861766;29;20030;-83
2023/06/27 07:13:37;;;;;;;7.40;2.25;;;21.00;99.90;;;;;;4861581;29;20033;-83
2023/06/27 07:16:03;;;;;;;8.85;1.88;;;20.90;99.90;;;;;;4861095;29;20025;-83
2023/06/27 07:18:28;;;;;;;10.75;2.28;;;21.00;99.90;;;;;;4861759;29;20030;-83
2023/06/27 07:20:54;;;;;;;5.63;1.83;;;21.10;99.90;;;;;;4861151;29;20073;-83
2023/06/27 07:23:19;;;;;;;9.20;1.98;;;21.10;99.90;;;;;;4860854;29;20046;-83
2023/06/27 07:25:45;;;;;;;5.13;1.98;;;21.10;99.90;;;;;;4861320;29;20375;-83
2023/06/27 07:28:10;;;;;;;5.63;1.40;;;21.10;99.90;;;;;;4861809;29;20060;-83
2023/06/27 07:30:36;;;;;;;2.58;1.50;;;21.10;97.80;;;;;;4860782;29;20029;-83
2023/06/27 07:33:01;;;;;;;4.50;1.15;;;21.40;97.90;;;;;;4861303;29;20030;-83
2023/06/27 07:35:29;;;;;;;2.33;1.17;;;21.10;97.00;;;;;;4861468;29;20352;-83
2023/06/27 07:37:54;;;;;;;4.88;1.20;;;21.10;97.20;;;;;;4860505;29;20033;-83
2023/06/27 07:40:20;;;;;;;3.35;0.93;;;21.00;96.40;;;;;;4861346;29;20029;-83
2023/06/27 07:42:45;;;;;;;4.28;1.27;;;21.20;96.70;;;;;;4860795;29;20447;-83
2023/06/27 07:45:11;;;;;;;3.00;1.38;;;21.10;96.70;;;;;;4860459;29;20022;-83
2023/06/27 07:47:36;;;;;;;3.10;1.13;;;21.10;96.90;;;;;;4861330;29;20033;-83
2023/06/27 07:50:02;;;;;;;4.53;1.30;;;21.10;96.80;;;;;;4860881;29;20161;-83
2023/06/27 07:52:30;;;;;;;5.03;1.30;;;21.20;96.40;;;;;;4859974;29;20398;-83
2023/06/27 07:54:55;;;;;;;2.85;1.80;;;21.30;96.30;;;;;;4860861;29;20412;-83
2023/06/27 07:57:21;;;;;;;2.80;1.15;;;21.20;96.40;;;;;;4860874;29;20082;-83
2023/06/27 07:59:46;;;;;;;3.58;1.20;;;21.30;96.20;;;;;;4860261;29;20094;-83
2023/06/27 08:02:12;;;;;;;2.90;1.33;;;21.20;96.60;;;;;;4860695;29;20500;-82
2023/06/27 08:04:38;;;;;;;5.28;1.40;;;21.20;96.70;;;;;;4861056;29;20566;-82
2023/06/27 08:07:04;;;;;;;3.17;1.02;;;21.30;96.80;;;;;;4859833;29;20033;-83
2023/06/27 08:09:29;;;;;;;4.72;1.02;;;21.30;96.70;;;;;;4860760;29;20029;-83
2023/06/27 08:11:55;;;;;;;4.75;1.30;;;21.30;96.40;;;;;;4859511;29;20030;-83
2023/06/27 08:14:20;;;;;;;3.83;1.40;;;20.80;96.10;;;;;;4860668;29;20073;-84
2023/06/27 08:16:46;;;;;;;3.00;1.17;;;21.30;96.40;;;;;;4860809;29;20108;-82
2023/06/27 08:19:18;;;;;;;5.47;1.13;;;21.40;96.20;;;;;;4859747;29;20080;-83
2023/06/27 08:21:44;;;;;;;4.88;1.17;;;21.30;96.00;;;;;;4860297;29;20459;-83
2023/06/27 08:24:10;;;;;;;5.63;1.08;;;21.40;96.30;;;;;;4860379;29;20045;-83
2023/06/27 08:26:35;;;;;;;3.72;1.30;;;21.30;96.30;;;;;;4859520;29;20558;-84
2023/06/27 08:29:01;;;;;;;5.20;0.95;;;21.50;96.30;;;;;;4860185;29;20073;-83
2023/06/27 08:31:26;;;;;;;4.03;1.90;;;21.40;96.60;;;;;;4860183;29;20116;-84
2023/06/27 08:33:53;;;;;;;7.13;1.13;;;21.30;96.30;;;;;;4859310;29;20372;-83
2023/06/27 08:36:20;;;;;;;3.60;1.48;;;21.40;96.20;;;;;;4860202;29;20075;-83
2023/06/27 08:38:45;;;;;;;2.80;1.27;;;21.40;96.20;;;;;;4860137;29;20026;-83
2023/06/27 08:41:12;;;;;;;7.60;5.15;;;21.40;96.30;;;;;;4859533;29;20177;-83
2023/06/27 08:43:39;;;;;;;5.57;1.20;;;21.40;96.20;;;;;;4860103;29;20048;-83
2023/06/27 08:46:08;;;;;;;6.63;1.30;;;21.40;95.60;;;;;;4859937;29;20913;-83
2023/06/27 08:48:36;;;;;;;6.07;1.08;;;21.30;95.40;;;;;;4859907;29;20018;-83
2023/06/27 08:51:03;;;;;;;6.47;1.50;;;21.30;95.50;;;;;;4859914;29;20035;-83
2023/06/27 08:53:31;;;;;;;3.88;0.90;;;21.30;95.60;;;;;;4860218;29;20037;-83
2023/06/27 08:56:10;;;;;;;3.83;1.10;;;21.30;94.90;;;;;;4859453;29;20391;-83
2023/06/27 08:58:45;;;;;;;3.75;1.52;;;21.30;95.10;;;;;;4860302;29;20038;-83
2023/06/27 09:01:11;;;;;;;1.42;0.70;;;21.30;95.40;;;;;;4861417;29;20041;-83
2023/06/27 09:03:37;;;;;;;4.68;1.20;;;21.50;95.20;;;;;;4860067;29;20029;-83
2023/06/27 09:06:05;;;;;;;4.20;1.08;;;21.40;95.50;;;;;;4859993;29;20032;-83
2023/06/27 09:08:33;;;;;;;3.42;1.00;;;21.50;95.40;;;;;;4859299;29;20450;-82
2023/06/27 09:11:00;;;;;;;3.83;0.80;;;21.40;95.20;;;;;;4859532;29;20437;-82
2023/06/27 09:13:26;;;;;;;6.40;1.63;;;21.40;95.30;;;;;;4862257;29;20106;-83
2023/06/27 09:15:52;;;;;;;2.92;1.25;;;21.20;95.40;;;;;;4863156;29;20049;-83
2023/06/27 09:18:18;;;;;;;5.82;1.67;;;21.20;95.40;;;;;;4863660;29;20022;-82
2023/06/27 09:20:44;;;;;;;3.00;1.13;;;21.30;95.20;;;;;;4863985;29;20045;-83
2023/06/27 09:23:11;;;;;;;3.45;1.33;;;21.70;95.30;;;;;;4862886;29;20037;-82
2023/06/27 09:25:36;;;;;;;5.43;1.23;;;21.30;95.40;;;;;;4863642;29;20386;-82
2023/06/27 09:28:16;;;;;;;4.28;1.33;;;21.80;95.50;;;;;;4863372;29;20108;-82
2023/06/27 09:30:55;;;;;;;2.03;1.00;;;21.40;95.50;;;;;;4856600;29;20104;-83
2023/06/27 09:33:21;;;;;;;9.40;1.52;;;21.40;95.10;;;;;;4863769;29;20049;-82
2023/06/27 09:35:46;;;;;;;2.83;1.58;;;21.40;94.40;;;;;;4863053;29;20026;-82
2023/06/27 09:38:12;;;;;;;5.93;1.17;;;21.40;94.30;;;;;;4862843;29;20030;-82
2023/06/27 09:40:38;;;;;;;5.38;1.40;;;21.40;94.50;;;;;;4863283;29;20097;-83
2023/06/27 09:43:08;;;;;;;2.92;2.20;;;21.30;94.90;;;;;;4862782;29;20481;-83
2023/06/27 09:45:34;;;;;;;4.45;1.48;;;21.40;94.60;;;;;;4862584;29;20057;-83
2023/06/27 09:47:59;;;;;;;7.60;1.23;;;21.40;94.90;;;;;;4863161;29;20065;-84
2023/06/27 09:50:31;;;;;;;2.47;1.10;;;21.30;94.90;;;;;;4862347;29;20383;-83
2023/06/27 09:53:00;;;;;;;6.75;1.17;;;21.40;95.50;;;;;;4862713;29;20390;-83
2023/06/27 09:55:27;;;;;;;2.08;1.15;;;21.50;95.40;;;;;;4862869;29;20057;-83
2023/06/27 09:57:53;;;;;;;5.32;1.08;;;21.90;94.80;;;;;;4862055;29;20451;-83
2023/06/27 10:00:23;;;;;;;7.95;1.50;;;21.50;94.70;;;;;;4863083;29;20037;-83
2023/06/27 10:02:49;;;;;;;3.38;1.13;;;21.50;94.60;;;;;;4862453;29;20069;-83
2023/06/27 10:05:16;;;;;;;13.63;1.15;;;21.50;94.80;;;;;;4861801;29;20030;-83
2023/06/27 10:07:46;;;;;;;4.88;1.58;;;21.60;95.00;;;;;;4862929;29;20067;-83
2023/06/27 10:10:13;;;;;;;2.60;1.02;;;21.40;94.50;;;;;;4862870;29;20475;-83
2023/06/27 10:12:39;;;;;;;7.13;1.20;;;21.70;94.80;;;;;;4861983;29;20034;-83
2023/06/27 10:15:07;;;;;;;3.13;0.98;;;21.60;94.90;;;;;;4862893;29;20090;-84
2023/06/27 10:17:33;;;;;;;7.30;1.23;;;21.60;94.80;;;;;;4862789;29;20033;-84
2023/06/27 10:19:59;;;;;;;4.13;1.63;;;22.00;94.80;;;;;;4861948;29;20040;-83
2023/06/27 10:22:29;;;;;;;7.15;1.30;;;21.60;95.00;;;;;;4862009;29;20045;-83
2023/06/27 10:25:03;;;;;;;4.00;0.98;;;21.60;95.00;;;;;;4862030;29;20081;-82
2023/06/27 10:27:33;;;;;;;6.93;1.27;;;21.60;94.90;;;;;;4862048;29;20083;-83
2023/06/27 10:30:04;;;;;;;3.20;1.10;;;22.10;94.80;;;;;;4862108;29;20033;-83
2023/06/27 10:32:43;;;;;;;3.60;1.17;;;21.60;95.00;;;;;;4862359;29;20029;-83
2023/06/27 10:35:26;;;;;;;2.42;1.20;;;21.60;94.30;;;;;;4862306;29;20041;-83
2023/06/27 10:38:13;;;;;;;4.82;1.15;;;21.70;94.60;;;;;;4861994;29;20387;-83
2023/06/27 10:41:06;;;;;;;4.53;1.58;;;21.60;94.40;;;;;;4861770;29;20034;-83
2023/06/27 10:43:52;;;;;;;5.35;1.45;;;21.60;94.60;;;;;;4862265;29;20108;-84
2023/06/27 10:46:28;;;;;;;3.10;0.80;;;21.80;94.40;;;;;;4862310;29;20030;-84
2023/06/27 10:49:06;;;;;;;3.00;1.10;;;21.70;94.30;;;;;;4861306;29;20482;-82
2023/06/27 10:51:44;;;;;;;5.03;1.05;;;21.60;93.70;;;;;;4862395;29;20029;-82
2023/06/27 10:54:12;;;;;;;5.55;1.05;;;21.70;94.30;;;;;;4861466;29;20057;-83
2023/06/27 10:56:45;;;;;;;4.07;1.73;;;21.70;94.20;;;;;;4862086;29;20390;-83
2023/06/27 10:59:15;;;;;;;3.78;1.30;;;21.80;94.10;;;;;;4862071;29;20029;-82
2023/06/27 11:01:52;;;;;;;5.38;1.40;;;21.80;93.90;;;;;;4861169;29;20045;-82
2023/06/27 11:04:39;;;;;;;4.05;1.25;;;21.60;93.40;;;;;;4861823;29;20416;-82
2023/06/27 11:07:07;;;;;;;3.00;1.05;;;21.80;93.30;;;;;;4861830;29;20112;-82
2023/06/27 11:09:35;;;;;;;4.35;1.50;;;22.00;94.00;;;;;;4861667;29;20036;-82
2023/06/27 11:12:14;;;;;;;3.00;1.17;;;21.80;93.60;;;;;;4861815;29;20048;-82
2023/06/27 11:14:45;;;;;;;6.80;1.52;;;21.80;94.20;;;;;;4861790;29;20032;-83
2023/06/27 11:17:11;;;;;;;;;;;21.80;94.20;;;;;;4861933;29;20026;-82
2023/06/27 11:19:38;;;;;;;3.13;0.90;;;21.80;93.10;;;;;;4861433;29;20353;-82
2023/06/27 11:22:04;;;;;;;2.80;1.00;;;21.90;93.40;;;;;;4860603;29;20551;-82
2023/06/27 11:24:30;;;;;;;5.28;0.98;;;21.90;93.10;;;;;;4861438;29;20078;-82
2023/06/27 11:26:57;;;;;;;5.88;1.40;;;21.90;93.40;;;;;;4861423;29;20066;-82
2023/06/27 11:29:24;;;;;;;2.38;1.20;;;21.90;93.70;;;;;;4860905;29;20056;-82
2023/06/27 11:31:50;;;;;;;6.00;1.25;;;21.80;93.20;;;;;;4861200;29;20057;-82
2023/06/27 11:34:17;;;;;;;4.50;1.40;;;21.90;93.50;;;;;;4861573;29;20353;-82
2023/06/27 11:36:44;;;;;;;6.53;1.23;;;21.90;94.00;;;;;;4859795;29;20060;-82
2023/06/27 11:39:11;;;;;;;4.35;1.30;;;21.90;93.30;;;;;;4861463;29;20030;-82
2023/06/27 11:41:44;;;;;;;9.70;1.65;;;22.20;93.40;;;;;;4861327;29;20033;-82
2023/06/27 11:44:14;;;;;;;6.72;1.50;;;21.90;93.40;;;;;;4860488;29;20029;-83
2023/06/27 11:46:46;;;;;;;8.55;2.22;;;21.90;93.50;;;;;;4861503;29;20033;-83
2023/06/27 11:49:12;;;;;;;4.32;1.30;;;21.90;93.60;;;;;;4861208;29;20040;-83
2023/06/27 11:51:41;;;;;;;4.82;1.48;;;22.20;94.10;;;;;;4860096;29;20025;-83
2023/06/27 11:54:08;;;;;;;4.05;1.60;;;21.90;93.90;;;;;;4860899;29;20033;-83
2023/06/27 11:56:36;;;;;;;5.60;1.88;;;21.90;93.80;;;;;;4860983;29;20036;-83
2023/06/27 11:59:02;;;;;;;4.78;1.77;;;21.90;93.60;;;;;;4859890;29;20041;-83
2023/06/27 12:01:31;;;;;;;4.88;1.95;;;21.80;93.60;;;;;;4860975;29;20037;-83
2023/06/27 12:03:57;;;;;;;4.90;1.63;;;21.80;93.60;;;;;;4860606;29;20049;-83
2023/06/27 12:06:31;;;;;;;7.47;1.48;;;21.80;94.40;;;;;;4861161;29;20771;-83
2023/06/27 12:08:58;;;;;;;5.60;1.60;;;22.10;93.90;;;;;;4860576;29;20038;-83
2023/06/27 12:11:36;;;;;;;4.95;1.83;;;21.90;94.00;;;;;;4860126;29;20025;-83
2023/06/27 12:14:02;;;;;;;5.78;2.10;;;21.90;94.20;;;;;;4860480;29;20029;-83
2023/06/27 12:16:33;;;;;;;5.43;1.48;;;22.00;93.80;;;;;;4860594;29;20514;-83
2023/06/27 12:19:03;;;;;;;5.40;1.30;;;21.90;94.40;;;;;;4859585;29;20026;-83
2023/06/27 12:21:29;;;;;;;2.30;1.35;;;22.00;94.10;;;;;;4860436;29;20038;-83
2023/06/27 12:23:55;;;;;;;6.90;1.38;;;22.50;93.90;;;;;;4859719;29;20649;-82
2023/06/27 12:26:20;;;;;;;7.68;1.65;;;21.90;93.60;;;;;;4859466;29;20026;-82
2023/06/27 12:29:03;;;;;;;4.28;1.40;;;21.90;94.30;;;;;;4859620;29;20435;-82
2023/06/27 12:31:29;;;;;;;3.03;1.25;;;21.90;94.50;;;;;;4859794;29;20123;-82
2023/06/27 12:33:55;;;;;;;4.28;1.40;;;21.90;94.40;;;;;;4858700;29;20073;-83
2023/06/27 12:36:23;;;;;;;5.25;1.00;;;21.90;93.50;;;;;;4859490;29;20112;-82
2023/06/27 12:38:53;;;;;;;7.70;2.42;;;22.90;94.20;;;;;;4859313;29;20052;-82
2023/06/27 12:41:19;;;;;;;;;;;22.10;93.50;;;;;;4859345;29;20434;-83
2023/06/27 12:43:45;;;;;;;3.40;1.00;;;22.00;93.60;;;;;;4859396;29;19912;-82
2023/06/27 12:46:11;;;;;;;3.20;1.30;;;22.00;93.30;;;;;;4859101;29;20026;-82